createdAt,value
2023-03-21T00:01:54.188Z,15.15
2023-03-21T00:04:22.526Z,12.63
2023-03-21T00:06:49.758Z,10.23
2023-03-21T00:09:17.132Z,14.85
2023-03-21T00:11:44.017Z,13.63
2023-03-21T00:14:14.476Z,10.60
2023-03-21T00:16:41.850Z,9.32
2023-03-21T00:19:09.917Z,11.30
2023-03-21T00:21:49.148Z,12.88
2023-03-21T00:24:18.921Z,10.55
2023-03-21T00:26:46.148Z,15.15
2023-03-21T00:29:13.038Z,12.38
2023-03-21T00:31:39.974Z,11.50
2023-03-21T00:34:06.802Z,12.35
2023-03-21T00:36:33.661Z,7.72
2023-03-21T00:39:01.065Z,12.20
2023-03-21T00:41:41.479Z,12.80
2023-03-21T00:44:11.785Z,9.10
2023-03-21T00:46:57.410Z,13.43
2023-03-21T00:49:26.088Z,9.23
2023-03-21T00:51:55.322Z,11.38
2023-03-21T00:54:24.064Z,13.93
2023-03-21T00:56:50.899Z,10.27
2023-03-21T00:59:17.740Z,9.85
2023-03-21T01:01:46.780Z,10.57
2023-03-21T01:04:16.699Z,10.43
2023-03-21T01:06:44.472Z,13.63
2023-03-21T01:09:20.779Z,15.32
2023-03-21T01:11:48.852Z,13.95
2023-03-21T01:14:24.745Z,8.98
2023-03-21T01:16:53.242Z,15.75
2023-03-21T01:19:40.706Z,12.82
2023-03-21T01:22:12.357Z,14.68
2023-03-21T01:24:50.380Z,15.10
2023-03-21T01:27:19.082Z,14.32
2023-03-21T01:29:45.989Z,14.10
2023-03-21T01:32:12.722Z,16.23
2023-03-21T01:34:39.459Z,15.25
2023-03-21T01:37:06.345Z,17.42
2023-03-21T01:39:35.034Z,15.70
2023-03-21T01:42:01.858Z,18.95
2023-03-21T01:44:29.043Z,15.02
2023-03-21T01:47:12.580Z,17.38
2023-03-21T01:49:46.257Z,16.45
2023-03-21T01:52:29.850Z,18.65
2023-03-21T01:55:02.491Z,16.02
2023-03-21T01:57:51.921Z,16.13
2023-03-21T02:00:25.077Z,16.92
2023-03-21T02:02:58.036Z,14.82
2023-03-21T02:05:35.328Z,15.77
2023-03-21T02:08:02.617Z,15.15
2023-03-21T02:10:32.331Z,15.43
2023-03-21T02:13:09.381Z,18.40
2023-03-21T02:15:39.202Z,14.02
2023-03-21T02:18:14.370Z,14.98
2023-03-21T02:21:16.694Z,16.15
2023-03-21T02:23:58.639Z,12.27
2023-03-21T02:26:42.035Z,12.65
2023-03-21T02:29:48.463Z,19.17
2023-03-21T02:32:36.677Z,14.43
2023-03-21T02:35:34.049Z,15.05
2023-03-21T02:38:08.376Z,14.07
2023-03-21T02:41:00.411Z,13.20
2023-03-21T02:43:41.007Z,15.45
2023-03-21T02:46:17.303Z,17.17
2023-03-21T02:49:17.177Z,19.08
2023-03-21T02:51:46.621Z,17.40
2023-03-21T02:54:32.332Z,15.50
2023-03-21T02:57:04.489Z,16.45
2023-03-21T02:59:34.028Z,17.52
2023-03-21T03:02:03.082Z,13.75
2023-03-21T03:04:29.981Z,16.35
2023-03-21T03:07:03.292Z,15.57
2023-03-21T03:10:03.440Z,13.57
2023-03-21T03:12:43.139Z,15.23
2023-03-21T03:15:22.064Z,15.20
2023-03-21T03:17:48.810Z,15.45
2023-03-21T03:20:27.449Z,16.92
2023-03-21T03:23:20.254Z,15.25
2023-03-21T03:25:49.914Z,14.60
2023-03-21T03:28:23.486Z,15.65
2023-03-21T03:31:07.619Z,15.82
2023-03-21T03:33:39.849Z,14.88
2023-03-21T03:36:18.861Z,14.45
2023-03-21T03:38:57.427Z,19.70
2023-03-21T03:41:26.760Z,14.60
2023-03-21T03:43:58.001Z,18.60
2023-03-21T03:46:33.500Z,20.38
2023-03-21T03:49:15.799Z,17.10
2023-03-21T03:54:17.639Z,16.08
2023-03-21T03:56:45.312Z,16.98
2023-03-21T03:59:12.181Z,16.90
2023-03-21T04:01:39.036Z,20.80
2023-03-21T04:04:13.282Z,18.15
2023-03-21T04:06:41.467Z,18.00
2023-03-21T04:09:19.229Z,18.58
2023-03-21T04:11:47.356Z,16.02
2023-03-21T04:14:14.319Z,16.65
2023-03-21T04:16:41.168Z,16.48
2023-03-21T04:19:07.964Z,17.48
2023-03-21T04:21:34.805Z,12.98
2023-03-21T04:24:01.698Z,16.13
2023-03-21T04:26:33.053Z,15.27
2023-03-21T04:29:03.533Z,17.35
2023-03-21T04:31:33.905Z,16.17
2023-03-21T04:34:02.634Z,21.98
2023-03-21T04:36:38.994Z,22.02
2023-03-21T04:39:12.356Z,21.63
2023-03-21T04:41:44.164Z,19.02
2023-03-21T04:44:12.216Z,22.63
2023-03-21T04:46:39.796Z,23.85
2023-03-21T04:49:07.129Z,26.15
2023-03-21T04:51:34.431Z,21.85
2023-03-21T04:54:01.166Z,23.92
2023-03-21T04:56:36.417Z,20.48
2023-03-21T04:59:10.590Z,22.80
2023-03-21T05:01:37.364Z,18.85
2023-03-21T05:04:04.923Z,20.83
2023-03-21T05:06:32.149Z,18.38
2023-03-21T05:09:01.492Z,17.90
2023-03-21T05:11:30.856Z,17.02
2023-03-21T05:13:58.839Z,15.57
2023-03-21T05:16:30.495Z,19.27
2023-03-21T05:19:04.100Z,13.98
2023-03-21T05:21:34.258Z,16.25
2023-03-21T05:24:03.572Z,16.08
2023-03-21T05:26:30.405Z,16.00
2023-03-21T05:28:57.224Z,15.45
2023-03-21T05:31:24.045Z,18.27
2023-03-21T05:33:51.128Z,16.63
2023-03-21T05:36:17.910Z,15.43
2023-03-21T05:38:47.870Z,16.33
2023-03-21T05:41:18.169Z,18.90
2023-03-21T05:43:45.888Z,18.48
2023-03-21T05:46:13.285Z,15.52
2023-03-21T05:48:40.145Z,21.30
2023-03-21T05:51:07.007Z,15.40
2023-03-21T05:53:33.958Z,17.40
2023-03-21T05:56:00.796Z,15.73
2023-03-21T05:58:27.740Z,15.35
2023-03-21T06:00:54.834Z,16.75
2023-03-21T06:03:21.808Z,17.90
2023-03-21T06:05:48.636Z,22.52
2023-03-21T06:08:15.516Z,18.80
2023-03-21T06:10:42.374Z,17.00
2023-03-21T06:13:09.209Z,22.35
2023-03-21T06:15:36.250Z,19.42
2023-03-21T06:18:03.157Z,18.05
2023-03-21T06:20:30.243Z,21.77
2023-03-21T06:22:57.152Z,19.15
2023-03-21T06:25:24.113Z,16.58
2023-03-21T06:27:50.895Z,21.00
2023-03-21T06:30:18.435Z,16.67
2023-03-21T06:32:45.348Z,18.48
2023-03-21T06:35:12.256Z,21.48
2023-03-21T06:37:39.057Z,17.35
2023-03-21T06:40:09.072Z,18.55
2023-03-21T06:42:36.465Z,21.30
2023-03-21T06:45:03.643Z,18.73
2023-03-21T06:47:30.652Z,19.65
2023-03-21T06:49:57.513Z,17.50
2023-03-21T06:52:24.351Z,18.17
2023-03-21T06:54:51.212Z,18.30
2023-03-21T06:57:19.968Z,19.45
2023-03-21T06:59:47.589Z,17.83
2023-03-21T07:02:14.759Z,18.35
2023-03-21T07:04:41.606Z,17.88
2023-03-21T07:07:08.567Z,17.20
2023-03-21T07:09:35.370Z,17.80
2023-03-21T07:12:02.185Z,17.35
2023-03-21T07:14:30.004Z,18.23
2023-03-21T07:16:56.950Z,16.60
2023-03-21T07:19:23.660Z,15.98
2023-03-21T07:21:50.950Z,19.52
2023-03-21T07:24:17.692Z,20.50
2023-03-21T07:26:44.533Z,17.25
2023-03-21T07:29:11.254Z,21.75
2023-03-21T07:31:39.936Z,21.25
2023-03-21T07:34:06.882Z,19.35
2023-03-21T07:36:33.666Z,19.65
2023-03-21T07:39:00.703Z,21.60
2023-03-21T07:41:27.454Z,23.77
2023-03-21T07:43:54.213Z,19.75
2023-03-21T07:46:21.199Z,19.80
2023-03-21T07:48:48.044Z,15.77
2023-03-21T07:51:14.833Z,19.73
2023-03-21T07:53:42.049Z,18.17
2023-03-21T07:56:09.168Z,17.25
2023-03-21T07:58:35.944Z,16.92
2023-03-21T08:01:03.331Z,18.42
2023-03-21T08:03:31.591Z,17.35
2023-03-21T08:06:01.387Z,16.20
2023-03-21T08:08:28.324Z,16.08
2023-03-21T08:10:55.482Z,18.75
2023-03-21T08:13:23.038Z,20.85
2023-03-21T08:15:49.880Z,20.45
2023-03-21T08:18:16.697Z,15.65
2023-03-21T08:20:43.468Z,16.55
2023-03-21T08:23:10.374Z,16.02
2023-03-21T08:25:37.704Z,18.13
2023-03-21T08:28:04.688Z,17.17
2023-03-21T08:30:31.532Z,17.98
2023-03-21T08:33:01.381Z,16.70
2023-03-21T08:35:29.591Z,18.02
2023-03-21T08:37:56.336Z,14.13
2023-03-21T08:40:23.195Z,15.30
2023-03-21T08:42:49.994Z,14.90
2023-03-21T08:45:18.280Z,16.05
2023-03-21T08:47:46.191Z,20.05
2023-03-21T08:50:19.065Z,19.17
2023-03-21T08:52:46.723Z,16.75
2023-03-21T08:55:14.988Z,15.45
2023-03-21T08:57:42.670Z,16.02
2023-03-21T09:00:14.057Z,13.55
2023-03-21T09:02:42.234Z,17.00
2023-03-21T09:05:11.944Z,16.00
2023-03-21T09:07:40.525Z,17.02
2023-03-21T09:10:26.956Z,14.63
2023-03-21T09:12:55.456Z,15.73
2023-03-21T09:15:24.977Z,15.23
2023-03-21T09:17:54.184Z,16.98
2023-03-21T09:20:26.319Z,15.90
2023-03-21T09:22:53.860Z,15.23
2023-03-21T09:25:21.596Z,14.95
2023-03-21T09:27:48.747Z,12.60
2023-03-21T09:30:18.835Z,12.95
2023-03-21T09:32:48.692Z,14.68
2023-03-21T09:35:19.814Z,12.57
2023-03-21T09:37:47.843Z,13.17
2023-03-21T09:40:20.023Z,11.75
2023-03-21T09:42:46.808Z,14.13
2023-03-21T09:45:52.598Z,13.25
2023-03-21T09:48:57.460Z,12.13
2023-03-21T09:51:28.792Z,11.15
2023-03-21T09:53:57.707Z,13.03
2023-03-21T09:56:26.180Z,11.88
2023-03-21T09:58:59.482Z,11.30
2023-03-21T10:01:34.343Z,13.68
2023-03-21T10:04:05.896Z,14.73
2023-03-21T10:06:36.005Z,11.95
2023-03-21T10:09:07.668Z,12.57
2023-03-21T10:12:01.798Z,11.73
2023-03-21T10:14:33.188Z,14.60
2023-03-21T10:17:10.644Z,13.98
2023-03-21T10:19:37.442Z,13.05
2023-03-21T10:22:04.537Z,12.40
2023-03-21T10:24:34.040Z,12.00
2023-03-21T10:27:02.770Z,10.38
2023-03-21T10:29:42.324Z,12.05
2023-03-21T10:32:17.484Z,13.70
2023-03-21T10:37:24.982Z,13.27
2023-03-21T10:39:55.924Z,15.85
2023-03-21T10:42:29.678Z,12.60
2023-03-21T10:44:58.005Z,13.82
2023-03-21T10:47:33.956Z,13.95
2023-03-21T10:50:12.043Z,11.55
2023-03-21T10:52:47.985Z,11.30
2023-03-21T10:55:22.846Z,12.93
2023-03-21T10:57:57.683Z,11.68
2023-03-21T11:00:39.435Z,14.98
2023-03-21T11:03:08.372Z,10.88
2023-03-21T11:05:42.082Z,12.82
2023-03-21T11:08:16.077Z,13.88
2023-03-21T11:10:52.225Z,12.20
2023-03-21T11:13:25.746Z,12.50
2023-03-21T11:15:58.544Z,11.15
2023-03-21T11:18:27.788Z,14.75
2023-03-21T11:20:58.023Z,10.30
2023-03-21T11:23:29.701Z,9.68
2023-03-21T11:25:59.112Z,9.65
2023-03-21T11:28:33.461Z,10.00
2023-03-21T11:31:05.248Z,9.48
2023-03-21T11:33:36.681Z,12.15
2023-03-21T11:36:18.918Z,7.78
2023-03-21T11:38:53.619Z,7.43
2023-03-21T11:41:31.099Z,11.07
2023-03-21T11:43:59.619Z,8.73
2023-03-21T11:46:31.818Z,9.98
2023-03-21T11:49:00.089Z,9.63
2023-03-21T11:51:54.187Z,11.20
2023-03-21T11:54:28.311Z,13.15
2023-03-21T11:57:14.511Z,11.82
2023-03-21T12:00:14.427Z,10.18
2023-03-21T12:03:06.234Z,10.05
2023-03-21T12:05:41.841Z,9.95
2023-03-21T12:08:27.184Z,12.02
2023-03-21T12:11:13.359Z,9.38
2023-03-21T12:14:07.271Z,9.38
2023-03-21T12:16:49.122Z,10.27
2023-03-21T12:19:27.683Z,10.45
2023-03-21T12:22:24.984Z,8.70
2023-03-21T12:24:55.562Z,10.82
2023-03-21T12:27:37.614Z,8.15
2023-03-21T12:30:24.678Z,11.43
2023-03-21T12:33:09.506Z,8.07
2023-03-21T12:36:04.592Z,8.98
2023-03-21T12:38:41.574Z,8.30
2023-03-21T12:41:25.525Z,9.95
2023-03-21T12:44:18.600Z,9.30
2023-03-21T12:46:48.339Z,11.05
2023-03-21T12:49:32.433Z,8.20
2023-03-21T12:52:08.124Z,10.30
2023-03-21T12:54:38.742Z,8.27
2023-03-21T12:57:15.634Z,8.80
2023-03-21T12:59:48.406Z,7.97
2023-03-21T13:02:22.666Z,10.65
2023-03-21T13:05:00.162Z,7.97
2023-03-21T13:07:32.433Z,6.13
2023-03-21T13:10:02.244Z,8.90
2023-03-21T13:12:56.235Z,10.43
2023-03-21T13:15:38.034Z,7.60
2023-03-21T13:18:23.086Z,7.28
2023-03-21T13:20:57.034Z,9.73
2023-03-21T13:23:26.174Z,10.60
2023-03-21T13:25:55.835Z,8.88
2023-03-21T13:28:27.800Z,9.02
2023-03-21T13:33:45.052Z,10.63
2023-03-21T13:36:39.662Z,10.95
2023-03-21T13:39:06.982Z,12.73
2023-03-21T13:41:40.723Z,10.30
2023-03-21T13:44:25.548Z,8.57
2023-03-21T13:47:01.570Z,9.38
2023-03-21T13:49:34.655Z,9.40
2023-03-21T13:52:23.774Z,10.55
2023-03-21T13:54:56.102Z,10.65
2023-03-21T13:57:38.741Z,12.13
2023-03-21T14:00:17.853Z,11.50
2023-03-21T14:03:00.364Z,10.05
2023-03-21T14:05:28.858Z,9.45
2023-03-21T14:08:12.333Z,9.82
2023-03-21T14:10:49.253Z,12.43
2023-03-21T14:13:19.514Z,9.48
2023-03-21T14:15:57.823Z,10.88
2023-03-21T14:18:41.214Z,10.90
2023-03-21T14:21:24.264Z,11.73
2023-03-21T14:24:05.623Z,14.25
2023-03-21T14:26:36.315Z,11.63
2023-03-21T14:29:09.666Z,10.02
2023-03-21T14:31:47.439Z,9.45
2023-03-21T14:34:16.908Z,12.07
2023-03-21T14:36:51.673Z,11.15
2023-03-21T14:39:27.382Z,13.77
2023-03-21T14:44:28.086Z,10.20
2023-03-21T14:47:02.087Z,9.77
2023-03-21T14:49:31.210Z,9.43
2023-03-21T14:52:08.053Z,9.68
2023-03-21T14:54:35.001Z,8.90
2023-03-21T14:57:05.284Z,13.77
2023-03-21T14:59:38.550Z,13.13
2023-03-21T15:02:16.966Z,12.75
2023-03-21T15:05:06.183Z,14.30
2023-03-21T15:07:36.286Z,11.55
2023-03-21T15:10:14.046Z,11.88
2023-03-21T15:12:51.152Z,11.73
2023-03-21T15:15:18.907Z,9.90
2023-03-21T15:17:46.559Z,9.52
2023-03-21T15:20:16.906Z,11.85
2023-03-21T15:22:51.660Z,10.98
2023-03-21T15:25:25.918Z,12.55
2023-03-21T15:27:52.877Z,12.77
2023-03-21T15:30:28.041Z,12.77
2023-03-21T15:32:59.450Z,11.15
2023-03-21T15:35:38.793Z,15.30
2023-03-21T15:38:06.787Z,11.98
2023-03-21T15:40:35.735Z,12.73
2023-03-21T15:43:15.985Z,12.90
2023-03-21T15:45:49.240Z,10.73
2023-03-21T15:48:16.631Z,12.63
2023-03-21T15:51:02.320Z,11.45
2023-03-21T15:53:36.231Z,12.10
2023-03-21T15:56:06.149Z,10.27
2023-03-21T15:58:41.401Z,12.45
2023-03-21T16:01:18.055Z,13.45
2023-03-21T16:04:07.440Z,12.43
2023-03-21T16:06:37.037Z,12.15
2023-03-21T16:09:23.527Z,12.25
2023-03-21T16:11:54.254Z,15.13
2023-03-21T16:14:22.480Z,12.85
2023-03-21T16:16:50.300Z,12.88
2023-03-21T16:19:17.326Z,12.57
2023-03-21T16:21:44.082Z,12.02
2023-03-21T16:24:12.608Z,12.45
2023-03-21T16:26:46.063Z,16.33
2023-03-21T16:29:15.598Z,12.50
2023-03-21T16:31:43.081Z,14.75
2023-03-21T16:34:10.797Z,11.80
2023-03-21T16:36:40.370Z,14.02
2023-03-21T16:39:19.529Z,11.85
2023-03-21T16:41:47.307Z,12.32
2023-03-21T16:44:14.610Z,13.73
2023-03-21T16:46:41.404Z,11.65
2023-03-21T16:49:18.907Z,10.82
2023-03-21T16:51:45.742Z,13.23
2023-03-21T16:54:12.553Z,17.55
2023-03-21T16:56:43.242Z,12.05
2023-03-21T16:59:13.304Z,14.43
2023-03-21T17:01:41.481Z,23.52
2023-03-21T17:04:09.145Z,18.25
2023-03-21T17:06:44.739Z,14.55
2023-03-21T17:09:14.269Z,15.32
2023-03-21T17:11:44.368Z,17.52
2023-03-21T17:14:12.943Z,15.48
2023-03-21T17:16:42.816Z,17.35
2023-03-21T17:19:15.065Z,15.50
2023-03-21T17:21:41.810Z,15.93
2023-03-21T17:24:08.751Z,16.52
2023-03-21T17:26:36.514Z,15.93
2023-03-21T17:29:04.080Z,18.50
2023-03-21T17:31:36.872Z,17.35
2023-03-21T17:34:04.612Z,15.25
2023-03-21T17:36:37.319Z,14.25
2023-03-21T17:39:09.658Z,15.80
2023-03-21T17:41:36.513Z,16.88
2023-03-21T17:44:03.381Z,18.50
2023-03-21T17:46:36.842Z,19.10
2023-03-21T17:49:04.387Z,19.00
2023-03-21T17:51:33.073Z,16.80
2023-03-21T17:54:00.370Z,19.95
2023-03-21T17:56:32.676Z,18.23
2023-03-21T17:59:02.051Z,19.48
2023-03-21T18:01:30.935Z,20.63
2023-03-21T18:03:58.912Z,22.85
2023-03-21T18:06:26.823Z,23.17
2023-03-21T18:08:54.639Z,22.38
2023-03-21T18:11:23.171Z,24.77
2023-03-21T18:13:50.375Z,24.73
2023-03-21T18:16:22.961Z,25.17
2023-03-21T18:18:50.968Z,25.92
2023-03-21T18:21:20.243Z,26.10
2023-03-21T18:23:47.603Z,25.88
2023-03-21T18:26:17.696Z,26.40
2023-03-21T18:28:45.500Z,30.77
2023-03-21T18:31:20.444Z,27.08
2023-03-21T18:33:49.182Z,27.10
2023-03-21T18:36:24.725Z,27.30
2023-03-21T18:38:52.167Z,28.88
2023-03-21T18:41:19.833Z,27.83
2023-03-21T18:44:17.535Z,27.85
2023-03-21T18:46:33.937Z,28.63
2023-03-21T18:49:19.836Z,29.70
2023-03-21T18:51:47.997Z,29.88
2023-03-21T18:54:14.903Z,30.63
2023-03-21T18:59:38.889Z,30.30
2023-03-21T19:02:07.599Z,27.33
2023-03-21T19:04:34.473Z,28.30
2023-03-21T19:07:01.346Z,31.50
2023-03-21T19:09:31.811Z,28.10
2023-03-21T19:11:59.931Z,28.63
2023-03-21T19:14:26.978Z,27.10
2023-03-21T19:17:43.620Z,28.40
2023-03-21T19:19:43.358Z,27.52
2023-03-21T19:22:10.568Z,24.85
2023-03-21T19:24:39.713Z,28.05
2023-03-21T19:27:07.013Z,25.52
2023-03-21T19:29:34.006Z,26.67
2023-03-21T19:32:01.479Z,26.60
2023-03-21T19:34:29.398Z,23.55
2023-03-21T19:36:57.543Z,24.55
2023-03-21T19:39:25.132Z,21.88
2023-03-21T19:41:55.379Z,24.67
2023-03-21T19:44:30.926Z,24.38
2023-03-21T19:46:57.910Z,28.48
2023-03-21T19:49:34.662Z,22.35
2023-03-21T19:52:03.688Z,24.13
2023-03-21T19:54:30.498Z,24.67
2023-03-21T19:56:57.364Z,23.95
2023-03-21T19:59:24.104Z,21.75
2023-03-21T20:01:56.406Z,25.58
2023-03-21T20:04:25.639Z,23.42
2023-03-21T20:06:57.078Z,23.05
2023-03-21T20:09:50.158Z,20.10
2023-03-21T20:12:11.890Z,21.52
2023-03-21T20:14:38.853Z,21.95
2023-03-21T20:17:06.008Z,23.77
2023-03-21T20:19:32.853Z,21.95
2023-03-21T20:22:02.604Z,22.55
2023-03-21T20:24:30.426Z,24.58
2023-03-21T20:26:57.752Z,24.67
2023-03-21T20:32:11.389Z,22.23
2023-03-21T20:34:38.339Z,23.63
2023-03-21T20:37:06.307Z,25.17
2023-03-21T20:39:33.511Z,23.98
2023-03-21T20:42:00.403Z,22.10
2023-03-21T20:44:48.504Z,21.38
2023-03-21T20:47:14.920Z,23.95
2023-03-21T20:49:41.727Z,20.70
2023-03-21T20:52:54.470Z,22.40
2023-03-21T20:54:59.366Z,21.77
2023-03-21T20:57:30.183Z,23.02
2023-03-21T20:59:57.619Z,24.38
2023-03-21T21:02:24.851Z,21.83
2023-03-21T21:05:23.676Z,20.20
2023-03-21T21:07:41.841Z,22.60
2023-03-21T21:10:14.289Z,20.38
2023-03-21T21:12:45.120Z,20.70
2023-03-21T21:15:14.299Z,21.08
2023-03-21T21:18:04.829Z,23.42
2023-03-21T21:20:28.307Z,21.17
2023-03-21T21:23:00.549Z,25.40
2023-03-21T21:25:30.522Z,20.33
2023-03-21T21:27:57.497Z,20.58
2023-03-21T21:30:24.808Z,18.70
2023-03-21T21:32:51.598Z,20.55
2023-03-21T21:35:19.685Z,20.58
2023-03-21T21:37:47.083Z,19.00
2023-03-21T21:40:20.278Z,19.95
2023-03-21T21:42:47.213Z,18.23
2023-03-21T21:45:14.557Z,19.17
2023-03-21T21:47:43.900Z,19.50
2023-03-21T21:50:11.238Z,18.92
2023-03-21T21:52:37.967Z,20.83
2023-03-21T21:55:06.528Z,20.52
2023-03-21T21:57:34.548Z,19.48
2023-03-21T22:00:06.641Z,22.13
2023-03-21T22:02:33.767Z,18.60
2023-03-21T22:05:00.698Z,17.73
2023-03-21T22:07:28.982Z,20.50
2023-03-21T22:09:56.176Z,18.45
2023-03-21T22:12:23.420Z,18.80
2023-03-21T22:14:50.334Z,18.58
2023-03-21T22:17:17.175Z,20.38
2023-03-21T22:19:52.673Z,18.90
2023-03-21T22:22:26.189Z,19.10
2023-03-21T22:24:56.329Z,20.02
2023-03-21T22:27:23.154Z,17.65
2023-03-21T22:29:49.925Z,19.52
2023-03-21T22:32:16.798Z,18.23
2023-03-21T22:34:43.527Z,21.50
2023-03-21T22:37:10.372Z,18.70
2023-03-21T22:39:37.542Z,19.38
2023-03-21T22:42:04.998Z,19.05
2023-03-21T22:44:35.658Z,17.95
2023-03-21T22:47:05.687Z,18.30
2023-03-21T22:49:33.021Z,18.40
2023-03-21T22:52:01.119Z,16.38
2023-03-21T22:54:27.916Z,18.58
2023-03-21T22:56:54.734Z,17.95
2023-03-21T22:59:21.614Z,17.20
2023-03-21T23:01:49.281Z,17.83
2023-03-21T23:04:16.371Z,17.63
2023-03-21T23:06:43.849Z,17.55
2023-03-21T23:09:10.935Z,18.05
2023-03-21T23:11:38.614Z,16.02
2023-03-21T23:14:08.451Z,16.55
2023-03-21T23:16:38.485Z,18.13
2023-03-21T23:19:06.230Z,17.23
2023-03-21T23:21:36.479Z,17.70
2023-03-21T23:24:03.339Z,16.35
2023-03-21T23:26:30.672Z,18.83
2023-03-21T23:28:57.634Z,17.48
2023-03-21T23:31:26.709Z,20.17
2023-03-21T23:33:54.343Z,20.38
2023-03-21T23:36:21.779Z,16.45
2023-03-21T23:38:48.699Z,18.00
2023-03-21T23:41:19.267Z,18.42
2023-03-21T23:43:46.928Z,19.08
2023-03-21T23:46:15.519Z,18.40
2023-03-21T23:48:43.376Z,17.52
2023-03-21T23:51:15.967Z,18.10
2023-03-21T23:53:44.446Z,17.10
2023-03-21T23:56:23.650Z,19.73
2023-03-21T23:58:51.336Z,19.48
